createdAt,value
2018-04-24T00:00:39.587Z,88.2
2018-04-24T00:01:20.103Z,88.01
2018-04-24T00:02:00.620Z,87.86
2018-04-24T00:02:41.137Z,88.06
2018-04-24T00:03:21.655Z,88.01
2018-04-24T00:04:02.201Z,87.72
2018-04-24T00:04:42.741Z,88.15
2018-04-24T00:05:23.264Z,88.01
2018-04-24T00:06:03.787Z,87.82
2018-04-24T00:06:44.344Z,87.53
2018-04-24T00:07:24.861Z,88.24
2018-04-24T00:08:05.373Z,87.92
2018-04-24T00:08:45.905Z,88.24
2018-04-24T00:09:26.421Z,88.1
2018-04-24T00:10:06.944Z,87.92
2018-04-24T00:10:47.467Z,87.86
2018-04-24T00:11:27.992Z,88.06
2018-04-24T00:12:08.505Z,87.96
2018-04-24T00:12:49.045Z,87.96
2018-04-24T00:13:29.571Z,87.86
2018-04-24T00:14:10.092Z,88.01
2018-04-24T00:14:50.615Z,88.01
2018-04-24T00:15:31.140Z,88.01
2018-04-24T00:16:11.671Z,88.1
2018-04-24T00:16:52.193Z,87.82
2018-04-24T00:17:32.712Z,88.06
2018-04-24T00:18:13.248Z,88.15
2018-04-24T00:18:53.747Z,87.82
2018-04-24T00:19:34.361Z,88.2
2018-04-24T00:20:14.882Z,87.86
2018-04-24T00:20:55.392Z,87.96
2018-04-24T00:21:35.923Z,88.1
2018-04-24T00:22:16.431Z,88.01
2018-04-24T00:22:56.962Z,88.78
2018-04-24T00:23:37.477Z,88.78
2018-04-24T00:24:17.992Z,88.97
2018-04-24T00:24:58.504Z,88.39
2018-04-24T00:25:39.019Z,89.16
2018-04-24T00:26:19.547Z,89.07
2018-04-24T00:27:00.068Z,89.07
2018-04-24T00:27:40.603Z,89.83
2018-04-24T00:28:21.106Z,89.79
2018-04-24T00:29:01.624Z,90.22
2018-04-24T00:29:42.147Z,89.6
2018-04-24T00:30:22.666Z,89.93
2018-04-24T00:31:03.215Z,89.83
2018-04-24T00:31:43.753Z,89.83
2018-04-24T00:32:24.269Z,90.03
2018-04-24T00:33:04.794Z,89.83
2018-04-24T00:33:45.332Z,90.03
2018-04-24T00:34:25.953Z,89.74
2018-04-24T00:35:06.378Z,89.93
2018-04-24T00:35:46.903Z,89.45
2018-04-24T00:36:27.424Z,89.93
2018-04-24T00:37:07.947Z,89.74
2018-04-24T00:37:48.462Z,88.97
2018-04-24T00:38:28.981Z,89.07
2018-04-24T00:39:09.501Z,89.93
2018-04-24T00:39:50.017Z,89.83
2018-04-24T00:40:30.550Z,89.54
2018-04-24T00:41:11.078Z,89.74
2018-04-24T00:41:51.599Z,89.98
2018-04-24T00:42:32.119Z,89.98
2018-04-24T00:43:12.642Z,90.08
2018-04-24T00:43:53.173Z,90.46
2018-04-24T00:44:33.679Z,90.17
2018-04-24T00:45:14.227Z,89.74
2018-04-24T00:45:54.744Z,90.03
2018-04-24T00:46:35.259Z,89.83
2018-04-24T00:47:15.781Z,89.93
2018-04-24T00:47:56.298Z,90.17
2018-04-24T00:48:36.821Z,90.03
2018-04-24T00:49:17.340Z,90.08
2018-04-24T00:49:57.862Z,90.08
2018-04-24T00:50:38.399Z,90.08
2018-04-24T00:51:18.921Z,90.27
2018-04-24T00:51:59.444Z,90.51
2018-04-24T00:52:39.960Z,89.83
2018-04-24T00:53:20.484Z,89.5
2018-04-24T00:54:01.006Z,89.69
2018-04-24T00:54:41.526Z,90.37
2018-04-24T00:55:22.049Z,90.08
2018-04-24T00:56:02.576Z,90.08
2018-04-24T00:56:43.157Z,90.27
2018-04-24T00:57:23.631Z,90.37
2018-04-24T00:58:04.260Z,90.08
2018-04-24T00:58:44.778Z,90.27
2018-04-24T00:59:25.301Z,90.56
2018-04-24T01:00:05.814Z,90.37
2018-04-24T01:00:46.338Z,89.98
2018-04-24T01:01:26.854Z,90.27
2018-04-24T01:02:07.375Z,90.17
2018-04-24T01:02:47.888Z,90.37
2018-04-24T01:03:28.402Z,90.37
2018-04-24T01:04:08.911Z,90.56
2018-04-24T01:04:49.472Z,90.27
2018-04-24T01:05:29.949Z,90.17
2018-04-24T01:06:10.467Z,90.46
2018-04-24T01:06:51.107Z,90.27
2018-04-24T01:07:31.529Z,90.37
2018-04-24T01:08:12.035Z,90.84
2018-04-24T01:08:52.557Z,90.37
2018-04-24T01:09:33.082Z,90.56
2018-04-24T01:10:13.593Z,90.84
2018-04-24T01:10:54.122Z,90.84
2018-04-24T01:11:34.647Z,90.75
2018-04-24T01:12:15.167Z,90.27
2018-04-24T01:12:55.694Z,90.37
2018-04-24T01:13:36.222Z,90.27
2018-04-24T01:14:16.739Z,90.46
2018-04-24T01:14:57.265Z,89.69
2018-04-24T01:15:37.775Z,89.79
2018-04-24T01:16:18.287Z,89.98
2018-04-24T01:16:58.817Z,89.98
2018-04-24T01:17:39.348Z,89.79
2018-04-24T01:18:19.885Z,89.4
2018-04-24T01:19:00.414Z,89.4
2018-04-24T01:19:40.938Z,89.89
2018-04-24T01:20:21.467Z,90.27
2018-04-24T01:21:01.982Z,90.27
2018-04-24T01:21:42.495Z,89.98
2018-04-24T01:22:23.008Z,90.08
2018-04-24T01:23:03.525Z,90.17
2018-04-24T01:23:44.038Z,90.17
2018-04-24T01:24:24.560Z,90.27
2018-04-24T01:25:05.079Z,89.79
2018-04-24T01:25:45.602Z,89.79
2018-04-24T01:26:26.126Z,89.79
2018-04-24T01:27:06.648Z,89.79
2018-04-24T01:27:47.177Z,89.6
2018-04-24T01:28:27.704Z,89.6
2018-04-24T01:29:08.228Z,89.02
2018-04-24T01:29:48.750Z,89.22
2018-04-24T01:30:29.263Z,89.4
2018-04-24T01:31:09.790Z,89.6
2018-04-24T01:31:50.317Z,89.6
2018-04-24T01:32:30.828Z,89.79
2018-04-24T01:33:11.349Z,89.79
2018-04-24T01:33:51.864Z,89.98
2018-04-24T01:34:32.380Z,89.79
2018-04-24T01:35:12.898Z,89.69
2018-04-24T01:35:53.415Z,89.98
2018-04-24T01:36:33.928Z,89.98
2018-04-24T01:37:14.461Z,89.5
2018-04-24T01:37:54.977Z,89.4
2018-04-24T01:38:35.499Z,89.69
2018-04-24T01:39:16.023Z,89.6
2018-04-24T01:39:56.538Z,89.6
2018-04-24T01:40:37.062Z,89.5
2018-04-24T01:41:17.583Z,89.6
2018-04-24T01:41:58.114Z,89.5
2018-04-24T01:42:38.632Z,89.4
2018-04-24T01:43:19.147Z,90.27
2018-04-24T01:43:59.787Z,90.17
2018-04-24T01:44:40.297Z,89.79
2018-04-24T01:45:20.835Z,89.79
2018-04-24T01:46:01.362Z,89.79
2018-04-24T01:46:41.879Z,89.98
2018-04-24T01:47:22.388Z,89.89
2018-04-24T01:48:02.934Z,89.79
2018-04-24T01:48:43.446Z,89.31
2018-04-24T01:49:23.979Z,89.79
2018-04-24T01:50:04.532Z,89.31
2018-04-24T01:50:45.048Z,89.6
2018-04-24T01:51:25.571Z,89.69
2018-04-24T01:52:06.085Z,89.6
2018-04-24T01:52:46.605Z,89.79
2018-04-24T01:53:27.135Z,89.89
2018-04-24T01:54:07.656Z,89.4
2018-04-24T01:54:48.176Z,89.22
2018-04-24T01:55:28.693Z,90.08
2018-04-24T01:56:09.209Z,89.31
2018-04-24T01:56:49.724Z,89.69
2018-04-24T01:57:30.251Z,89.31
2018-04-24T01:58:10.761Z,89.69
2018-04-24T01:58:51.277Z,89.89
2018-04-24T01:59:31.791Z,89.98
2018-04-24T02:00:12.313Z,89.89
2018-04-24T02:00:52.833Z,89.69
2018-04-24T02:01:33.349Z,89.6
2018-04-24T02:02:13.868Z,89.69
2018-04-24T02:02:54.391Z,89.5
2018-04-24T02:03:34.904Z,89.12
2018-04-24T02:04:15.425Z,89.79
2018-04-24T02:04:55.945Z,89.79
2018-04-24T02:05:36.465Z,89.6
2018-04-24T02:06:16.992Z,89.5
2018-04-24T02:06:57.525Z,89.69
2018-04-24T02:07:38.048Z,89.69
2018-04-24T02:08:18.573Z,89.75
2018-04-24T02:08:59.082Z,89.4
2018-04-24T02:09:39.619Z,89.65
2018-04-24T02:10:20.130Z,89.79
2018-04-24T02:11:00.659Z,89.5
2018-04-24T02:11:41.166Z,89.4
2018-04-24T02:12:21.685Z,89.6
2018-04-24T02:13:02.195Z,89.69
2018-04-24T02:13:42.729Z,89.31
2018-04-24T02:14:23.245Z,89.12
2018-04-24T02:15:03.774Z,89.12
2018-04-24T02:15:44.291Z,89.12
2018-04-24T02:16:24.812Z,89.4
2018-04-24T02:17:05.343Z,89.22
2018-04-24T02:17:45.858Z,89.12
2018-04-24T02:18:26.385Z,88.79
2018-04-24T02:19:06.892Z,89.31
2018-04-24T02:19:47.406Z,88.83
2018-04-24T02:20:27.930Z,88.93
2018-04-24T02:21:08.447Z,89.12
2018-04-24T02:21:48.967Z,89.22
2018-04-24T02:22:29.485Z,89.36
2018-04-24T02:23:10.005Z,89.4
2018-04-24T02:23:50.527Z,89.5
2018-04-24T02:24:31.019Z,89.22
2018-04-24T02:25:11.531Z,89.22
2018-04-24T02:25:52.053Z,88.83
2018-04-24T02:26:32.568Z,88.54
2018-04-24T02:27:13.091Z,89.22
2018-04-24T02:27:53.612Z,89.12
2018-04-24T02:28:34.131Z,88.93
2018-04-24T02:29:14.665Z,88.98
2018-04-24T02:29:55.193Z,89.12
2018-04-24T02:30:35.706Z,89.22
2018-04-24T02:31:16.219Z,88.69
2018-04-24T02:31:56.804Z,88.59
2018-04-24T02:32:37.310Z,88.79
2018-04-24T02:33:17.826Z,88.83
2018-04-24T02:33:58.351Z,88.93
2018-04-24T02:34:38.861Z,89.12
2018-04-24T02:35:19.383Z,88.49
2018-04-24T02:35:59.908Z,88.83
2018-04-24T02:36:40.432Z,88.64
2018-04-24T02:37:20.954Z,89.26
2018-04-24T02:38:01.473Z,89.17
2018-04-24T02:38:41.993Z,89.46
2018-04-24T02:39:22.521Z,89.17
2018-04-24T02:40:03.039Z,88.64
2018-04-24T02:40:43.566Z,89.22
2018-04-24T02:41:24.079Z,89.31
2018-04-24T02:42:04.601Z,89.26
2018-04-24T02:42:45.107Z,89.17
2018-04-24T02:43:25.627Z,89.36
2018-04-24T02:44:06.148Z,88.98
2018-04-24T02:44:46.656Z,88.83
2018-04-24T02:45:27.188Z,88.93
2018-04-24T02:46:07.705Z,88.93
2018-04-24T02:46:48.327Z,89.31
2018-04-24T02:47:28.755Z,89.17
2018-04-24T02:48:09.283Z,89.17
2018-04-24T02:48:49.794Z,89.17
2018-04-24T02:49:30.326Z,89.17
2018-04-24T02:50:10.863Z,88.98
2018-04-24T02:50:51.378Z,89.36
2018-04-24T02:51:31.901Z,89.17
2018-04-24T02:52:12.420Z,89.17
2018-04-24T02:52:52.943Z,88.98
2018-04-24T02:53:33.455Z,89.26
2018-04-24T02:54:13.985Z,89.17
2018-04-24T02:54:54.484Z,89.17
2018-04-24T02:55:35.104Z,88.88
2018-04-24T02:56:15.591Z,88.49
2018-04-24T02:56:56.117Z,88.79
2018-04-24T02:57:36.640Z,88.79
2018-04-24T02:58:17.162Z,89.17
2018-04-24T02:58:57.674Z,89.17
2018-04-24T02:59:38.173Z,89.17
2018-04-24T03:00:18.696Z,89.36
2018-04-24T03:00:59.210Z,89.84
2018-04-24T03:01:39.731Z,90.03
2018-04-24T03:02:20.245Z,89.75
2018-04-24T03:03:00.766Z,89.36
2018-04-24T03:03:41.292Z,89.94
2018-04-24T03:04:21.829Z,89.65
2018-04-24T03:05:02.343Z,89.94
2018-04-24T03:05:42.869Z,89.84
2018-04-24T03:06:23.381Z,89.84
2018-04-24T03:07:03.896Z,89.75
2018-04-24T03:07:44.417Z,90.18
2018-04-24T03:08:24.938Z,90.13
2018-04-24T03:09:05.484Z,90.03
2018-04-24T03:09:45.977Z,89.94
2018-04-24T03:10:26.527Z,89.75
2018-04-24T03:11:07.034Z,89.94
2018-04-24T03:11:47.607Z,89.46
2018-04-24T03:12:28.081Z,89.46
2018-04-24T03:13:08.595Z,89.65
2018-04-24T03:13:49.118Z,89.65
2018-04-24T03:14:29.638Z,89.65
2018-04-24T03:15:10.158Z,90.22
2018-04-24T03:15:50.676Z,90.13
2018-04-24T03:16:31.192Z,89.65
2018-04-24T03:17:11.727Z,90.18
2018-04-24T03:17:52.249Z,90.13
2018-04-24T03:18:32.777Z,89.65
2018-04-24T03:19:13.292Z,89.75
2018-04-24T03:19:53.813Z,89.55
2018-04-24T03:20:34.332Z,89.65
2018-04-24T03:21:14.869Z,89.75
2018-04-24T03:21:55.381Z,89.84
2018-04-24T03:22:35.900Z,89.65
2018-04-24T03:23:16.417Z,89.36
2018-04-24T03:23:56.943Z,89.75
2018-04-24T03:24:37.466Z,89.55
2018-04-24T03:25:17.973Z,89.7
2018-04-24T03:25:58.480Z,89.94
2018-04-24T03:26:39.010Z,89.61
2018-04-24T03:27:19.551Z,89.75
2018-04-24T03:28:00.084Z,89.84
2018-04-24T03:28:40.620Z,89.75
2018-04-24T03:29:21.143Z,89.55
2018-04-24T03:30:01.677Z,89.26
2018-04-24T03:30:42.192Z,89.84
2018-04-24T03:31:22.710Z,89.61
2018-04-24T03:32:03.227Z,89.65
2018-04-24T03:32:43.752Z,89.46
2018-04-24T03:33:24.270Z,89.17
2018-04-24T03:34:04.786Z,89.26
2018-04-24T03:34:45.305Z,88.88
2018-04-24T03:35:25.848Z,89.46
2018-04-24T03:36:06.357Z,89.36
2018-04-24T03:36:46.870Z,89.17
2018-04-24T03:37:27.395Z,89.26
2018-04-24T03:38:07.913Z,89.07
2018-04-24T03:38:48.425Z,88.79
2018-04-24T03:39:28.943Z,89.17
2018-04-24T03:40:09.460Z,88.88
2018-04-24T03:40:49.980Z,88.98
2018-04-24T03:41:30.493Z,89.17
2018-04-24T03:42:11.009Z,89.17
2018-04-24T03:42:51.523Z,88.49
2018-04-24T03:43:32.043Z,88.79
2018-04-24T03:44:12.554Z,88.79
2018-04-24T03:44:53.070Z,88.98
2018-04-24T03:45:33.595Z,89.26
2018-04-24T03:46:14.117Z,89.07
2018-04-24T03:46:54.633Z,89.17
2018-04-24T03:47:35.150Z,88.88
2018-04-24T03:48:15.672Z,88.88
2018-04-24T03:48:56.194Z,89.17
2018-04-24T03:49:36.716Z,89.17
2018-04-24T03:50:17.234Z,89.17
2018-04-24T03:50:57.759Z,89.36
2018-04-24T03:51:38.280Z,89.36
2018-04-24T03:52:18.804Z,89.17
2018-04-24T03:52:59.321Z,88.88
2018-04-24T03:53:39.845Z,89.17
2018-04-24T03:54:20.356Z,89.36
2018-04-24T03:55:00.868Z,89.12
2018-04-24T03:55:41.392Z,88.83
2018-04-24T03:56:21.913Z,88.69
2018-04-24T03:57:02.438Z,88.69
2018-04-24T03:57:42.999Z,88.64
2018-04-24T03:58:23.514Z,88.49
2018-04-24T03:59:04.024Z,88.59
2018-04-24T03:59:44.537Z,88.73
2018-04-24T04:00:25.060Z,88.49
2018-04-24T04:01:05.569Z,88.64
2018-04-24T04:01:46.091Z,88.64
2018-04-24T04:02:26.597Z,89.31
2018-04-24T04:03:07.117Z,88.54
2018-04-24T04:03:47.635Z,88.54
2018-04-24T04:04:28.166Z,88.73
2018-04-24T04:05:08.689Z,88.11
2018-04-24T04:05:49.205Z,88.21
2018-04-24T04:06:29.720Z,88.02
2018-04-24T04:07:10.247Z,88.02
2018-04-24T04:07:50.773Z,88.11
2018-04-24T04:08:31.292Z,87.87
2018-04-24T04:09:11.809Z,87.92
2018-04-24T04:09:52.332Z,88.93
2018-04-24T04:10:32.856Z,88.98
2018-04-24T04:11:13.372Z,88.59
2018-04-24T04:11:53.896Z,88.79
2018-04-24T04:12:34.414Z,88.79
2018-04-24T04:13:14.950Z,88.88
2018-04-24T04:13:55.461Z,89.07
2018-04-24T04:14:35.978Z,88.98
2018-04-24T04:15:16.496Z,89.46
2018-04-24T04:15:57.079Z,89.75
2018-04-24T04:16:37.533Z,89.46
2018-04-24T04:17:18.044Z,89.46
2018-04-24T04:17:58.557Z,89.55
2018-04-24T04:18:39.080Z,89.26
2018-04-24T04:19:19.595Z,88.69
2018-04-24T04:20:00.113Z,88.79
2018-04-24T04:20:40.643Z,88.49
2018-04-24T04:21:21.159Z,88.79
2018-04-24T04:22:01.671Z,88.88
2018-04-24T04:22:42.194Z,88.49
2018-04-24T04:23:22.724Z,88.79
2018-04-24T04:24:03.239Z,89.26
2018-04-24T04:24:43.763Z,88.88
2018-04-24T04:25:24.310Z,88.98
2018-04-24T04:26:04.819Z,89.17
2018-04-24T04:26:45.319Z,88.98
2018-04-24T04:27:25.848Z,89.55
2018-04-24T04:28:06.348Z,89.17
2018-04-24T04:28:46.883Z,89.22
2018-04-24T04:29:27.402Z,89.26
2018-04-24T04:30:07.936Z,88.93
2018-04-24T04:30:48.460Z,88.69
2018-04-24T04:31:28.978Z,89.55
2018-04-24T04:32:09.486Z,89.36
2018-04-24T04:32:50.041Z,89.36
2018-04-24T04:33:30.531Z,89.75
2018-04-24T04:34:11.060Z,89.94
2018-04-24T04:34:51.573Z,89.75
2018-04-24T04:35:32.091Z,89.94
2018-04-24T04:36:12.621Z,90.42
2018-04-24T04:36:53.149Z,89.94
2018-04-24T04:37:33.666Z,89.94
2018-04-24T04:38:14.202Z,89.55
2018-04-24T04:38:54.749Z,89.65
2018-04-24T04:39:35.265Z,89.75
2018-04-24T04:40:15.780Z,89.75
2018-04-24T04:40:56.289Z,89.55
2018-04-24T04:41:36.809Z,89.55
2018-04-24T04:42:17.340Z,89.26
2018-04-24T04:42:57.873Z,89.84
2018-04-24T04:43:38.391Z,90.52
2018-04-24T04:44:18.912Z,90.22
2018-04-24T04:44:59.421Z,90.03
2018-04-24T04:45:39.934Z,89.94
2018-04-24T04:46:20.458Z,89.89
2018-04-24T04:47:00.985Z,89.55
2018-04-24T04:47:41.501Z,89.89
2018-04-24T04:48:22.023Z,89.89
2018-04-24T04:49:02.573Z,89.65
2018-04-24T04:49:43.076Z,90.13
2018-04-24T04:50:23.594Z,90.27
2018-04-24T04:51:04.103Z,89.65
2018-04-24T04:51:44.626Z,89.65
2018-04-24T04:52:25.137Z,90.22
2018-04-24T04:53:05.660Z,89.65
2018-04-24T04:53:46.183Z,89.65
2018-04-24T04:54:26.707Z,89.79
2018-04-24T04:55:07.240Z,89.75
2018-04-24T04:55:47.778Z,89.79
2018-04-24T04:56:28.356Z,90.13
2018-04-24T04:57:08.963Z,90.37
2018-04-24T04:57:49.367Z,89.79
2018-04-24T04:58:29.902Z,89.5
2018-04-24T04:59:10.416Z,89.65
2018-04-24T04:59:50.948Z,89.84
2018-04-24T05:00:31.473Z,90.17
2018-04-24T05:01:11.997Z,90.42
2018-04-24T05:01:52.526Z,89.79
2018-04-24T05:02:33.039Z,89.89
2018-04-24T05:03:13.567Z,90.27
2018-04-24T05:03:54.104Z,89.98
2018-04-24T05:04:34.641Z,89.69
2018-04-24T05:05:15.165Z,89.22
2018-04-24T05:05:55.639Z,88.83
2018-04-24T05:06:36.187Z,88.93
2018-04-24T05:07:16.710Z,88.54
2018-04-24T05:07:57.223Z,88.73
2018-04-24T05:08:37.747Z,88.73
2018-04-24T05:09:18.258Z,88.83
2018-04-24T05:09:58.788Z,88.06
2018-04-24T05:10:39.346Z,88.64
2018-04-24T05:11:19.859Z,88.16
2018-04-24T05:12:00.441Z,87.96
2018-04-24T05:12:40.921Z,87.77
2018-04-24T05:13:21.441Z,88.06
2018-04-24T05:14:02.078Z,88.06
2018-04-24T05:14:42.585Z,87.77
2018-04-24T05:15:23.103Z,88.2
2018-04-24T05:16:03.627Z,87.68
2018-04-24T05:16:44.153Z,87.72
2018-04-24T05:17:24.673Z,87.96
2018-04-24T05:18:05.217Z,87.68
2018-04-24T05:18:45.773Z,87.77
2018-04-24T05:19:26.283Z,87.43
2018-04-24T05:20:06.822Z,87.24
2018-04-24T05:20:47.327Z,87.15
2018-04-24T05:21:27.860Z,87.05
2018-04-24T05:22:08.370Z,87.82
2018-04-24T05:22:48.881Z,91.75
2018-04-24T05:24:42.274Z,95.79
2018-04-24T05:25:22.784Z,94.06
2018-04-24T05:26:03.296Z,94.01
2018-04-24T05:26:43.811Z,96.7
2018-04-24T05:27:24.328Z,98.14
2018-04-24T05:28:04.857Z,98.63
2018-04-24T05:28:45.376Z,98.34
2018-04-24T05:29:25.885Z,95.36
2018-04-24T05:30:06.423Z,96.7
2018-04-24T05:30:46.937Z,98.63
2018-04-24T05:31:27.457Z,95.36
2018-04-24T05:32:07.985Z,94.59
2018-04-24T05:32:48.494Z,92.96
2018-04-24T05:33:29.010Z,91.61
2018-04-24T05:34:09.600Z,91.56
2018-04-24T05:34:50.104Z,93.38
2018-04-24T05:35:30.614Z,93.87
2018-04-24T05:36:11.130Z,98.68
2018-04-24T05:36:51.746Z,98.77
2018-04-24T05:37:32.182Z,96.17
2018-04-24T05:38:12.706Z,93.38
2018-04-24T05:38:53.219Z,92.43
2018-04-24T05:39:33.750Z,92.13
2018-04-24T05:40:14.264Z,93.38
2018-04-24T05:40:54.772Z,96.61
2018-04-24T05:41:35.290Z,94.78
2018-04-24T05:42:15.815Z,96.66
2018-04-24T05:42:56.331Z,95.4
2018-04-24T05:43:36.851Z,95.98
2018-04-24T05:44:17.410Z,95.6
2018-04-24T05:44:57.909Z,93.68
2018-04-24T05:45:38.434Z,94.97
2018-04-24T05:46:18.952Z,94.83
2018-04-24T05:46:59.475Z,91.41
2018-04-24T05:47:40.001Z,89.78
2018-04-24T05:48:20.527Z,88.53
2018-04-24T05:49:01.435Z,88.62
2018-04-24T05:49:41.949Z,88.91
2018-04-24T05:50:22.470Z,87.56
2018-04-24T05:51:02.981Z,89.1
2018-04-24T05:51:43.489Z,87.37
2018-04-24T05:52:24.048Z,86.31
2018-04-24T05:53:04.543Z,86.31
2018-04-24T05:53:45.046Z,87.56
2018-04-24T05:54:25.566Z,89.1
2018-04-24T05:55:06.074Z,88.14
2018-04-24T05:55:46.588Z,86.79
2018-04-24T05:56:27.112Z,86.89
2018-04-24T05:57:07.637Z,86.51
2018-04-24T05:57:48.207Z,88.04
2018-04-24T05:58:28.683Z,89.01
2018-04-24T05:59:09.223Z,85.93
2018-04-24T05:59:49.737Z,86.99
2018-04-24T06:00:30.261Z,85.06
2018-04-24T06:01:10.767Z,85.35
2018-04-24T06:01:51.295Z,86.31
2018-04-24T06:02:31.807Z,86.02
2018-04-24T06:03:12.334Z,86.16
2018-04-24T06:03:52.865Z,86.69
2018-04-24T06:04:33.384Z,87.46
2018-04-24T06:05:13.913Z,87.95
2018-04-24T06:05:54.437Z,85.74
2018-04-24T06:06:34.955Z,85.97
2018-04-24T06:07:15.565Z,88.09
2018-04-24T06:07:56.051Z,90.3
2018-04-24T06:08:36.671Z,87.12
2018-04-24T06:09:17.156Z,87.32
2018-04-24T06:09:57.756Z,85.68
2018-04-24T06:10:38.276Z,86.26
2018-04-24T06:11:18.792Z,87.32
2018-04-24T06:11:59.323Z,86.07
2018-04-24T06:12:39.840Z,87.84
2018-04-24T06:13:20.353Z,92.27
2018-04-24T06:14:00.870Z,89.09
2018-04-24T06:14:41.422Z,88.81
2018-04-24T06:15:21.937Z,92.37
2018-04-24T06:16:02.432Z,91.21
2018-04-24T06:16:42.976Z,94.49
2018-04-24T06:17:23.504Z,97.38
2018-04-24T06:18:04.019Z,95.07
2018-04-24T06:18:44.538Z,97.09
2018-04-24T06:19:25.056Z,92.94
2018-04-24T06:20:05.587Z,94.1
2018-04-24T06:20:46.097Z,96.89
2018-04-24T06:21:26.613Z,97.91
2018-04-24T06:22:07.136Z,98.1
2018-04-24T06:22:47.659Z,96.27
2018-04-24T06:23:28.175Z,97.52
2018-04-24T06:24:08.690Z,96.66
2018-04-24T06:24:49.211Z,97.81
2018-04-24T06:25:29.730Z,91.16
2018-04-24T06:26:10.262Z,90.1
2018-04-24T06:26:50.840Z,93.48
2018-04-24T06:27:31.382Z,94.63
2018-04-24T06:28:11.887Z,92.61
2018-04-24T06:28:52.402Z,90.88
2018-04-24T06:29:32.945Z,95.64
2018-04-24T06:30:13.483Z,99.4
2018-04-24T06:30:53.989Z,99.6
2018-04-24T06:31:34.507Z,98.77
2018-04-24T06:32:15.022Z,94.68
2018-04-24T06:32:55.538Z,97.09
2018-04-24T06:33:36.092Z,97.42
2018-04-24T06:34:16.666Z,99.21
2018-04-24T06:34:57.140Z,94.96
2018-04-24T06:35:37.678Z,90.92
2018-04-24T06:36:18.207Z,90.97
2018-04-24T06:36:58.745Z,88.08
2018-04-24T06:37:39.273Z,88.75
2018-04-24T06:38:19.843Z,90.15
2018-04-24T06:39:00.357Z,90.34
2018-04-24T06:39:40.875Z,91.69
2018-04-24T06:40:21.392Z,90.68
2018-04-24T06:41:01.925Z,91.06
2018-04-24T06:41:42.409Z,89.62
2018-04-24T06:42:22.929Z,92.03
2018-04-24T06:43:03.446Z,93.38
2018-04-24T06:43:43.953Z,92.66
2018-04-24T06:44:24.487Z,92.22
2018-04-24T06:45:05.008Z,94.06
2018-04-24T06:45:45.503Z,94.92
2018-04-24T06:46:26.026Z,95.54
2018-04-24T06:47:06.560Z,95.64
2018-04-24T06:47:47.149Z,95.45
2018-04-24T06:48:27.628Z,94.48
2018-04-24T06:49:08.150Z,90.63
2018-04-24T06:49:48.662Z,89.37
2018-04-24T06:50:29.187Z,87.26
2018-04-24T06:51:09.703Z,85.91
2018-04-24T06:51:50.239Z,85.13
2018-04-24T06:52:30.765Z,88.99
2018-04-24T06:53:11.276Z,88.7
2018-04-24T06:53:51.842Z,88.99
2018-04-24T06:54:32.365Z,87.74
2018-04-24T06:55:12.887Z,87.93
2018-04-24T06:55:53.414Z,89.47
2018-04-24T06:56:33.931Z,88.99
2018-04-24T06:57:14.439Z,86.39
2018-04-24T06:57:54.954Z,85.23
2018-04-24T06:58:35.482Z,86.1
2018-04-24T06:59:15.994Z,88.17
2018-04-24T06:59:56.524Z,88.99
2018-04-24T07:00:37.123Z,90.63
2018-04-24T07:01:17.603Z,86.39
2018-04-24T07:01:58.089Z,85.75
2018-04-24T07:02:38.605Z,91.44
2018-04-24T07:03:19.137Z,92.22
2018-04-24T07:03:59.628Z,87.88
2018-04-24T07:04:40.148Z,87.82
2018-04-24T07:05:20.635Z,90.53
2018-04-24T07:06:01.142Z,85.7
2018-04-24T07:06:41.641Z,81.74
2018-04-24T07:07:22.173Z,81.9
2018-04-24T07:08:02.673Z,85.31
2018-04-24T07:08:43.191Z,89.75
2018-04-24T07:09:23.745Z,90.14
2018-04-24T07:10:04.273Z,88.59
2018-04-24T07:10:44.793Z,86.76
2018-04-24T07:11:25.301Z,85.74
2018-04-24T07:12:05.823Z,84.48
2018-04-24T07:12:46.361Z,82.36
2018-04-24T07:13:26.879Z,89.22
2018-04-24T07:14:07.399Z,92.41
2018-04-24T07:14:48.256Z,91.63
2018-04-24T07:15:28.801Z,92.11
2018-04-24T07:16:10.101Z,87.67
2018-04-24T07:16:50.666Z,90.09
2018-04-24T07:17:31.162Z,91.83
2018-04-24T07:18:11.682Z,91.35
2018-04-24T07:18:52.228Z,85.22
2018-04-24T07:19:32.702Z,86.42
2018-04-24T07:20:13.227Z,87.67
2018-04-24T07:20:53.737Z,86.52
2018-04-24T07:21:34.263Z,86.42
2018-04-24T07:22:14.879Z,83.42
2018-04-24T07:22:55.291Z,81.59
2018-04-24T07:23:35.805Z,84.68
2018-04-24T07:24:16.326Z,91.05
2018-04-24T07:24:56.811Z,91.53
2018-04-24T07:25:37.333Z,88.73
2018-04-24T07:26:17.847Z,88.25
2018-04-24T07:26:58.350Z,88.06
2018-04-24T07:27:38.848Z,87.82
2018-04-24T07:28:19.350Z,87.63
2018-04-24T07:28:59.864Z,81.93
2018-04-24T07:29:40.435Z,85.22
2018-04-24T07:30:21.000Z,88.89
2018-04-24T07:31:01.474Z,87.96
2018-04-24T07:31:42.025Z,87.48
2018-04-24T07:32:22.520Z,86.71
2018-04-24T07:33:03.018Z,87.38
2018-04-24T07:33:43.559Z,87.29
2018-04-24T07:34:24.169Z,86.22
2018-04-24T07:35:04.870Z,84.3
2018-04-24T07:35:45.479Z,78.46
2018-04-24T07:36:25.889Z,81.35
2018-04-24T07:37:06.397Z,80.49
2018-04-24T07:37:46.873Z,80.62
2018-04-24T07:38:27.419Z,81.98
2018-04-24T07:39:07.884Z,82.46
2018-04-24T07:39:48.389Z,83.67
2018-04-24T07:40:28.846Z,85.41
2018-04-24T07:41:09.383Z,86.08
2018-04-24T07:41:49.891Z,85.8
2018-04-24T07:42:30.415Z,84.83
2018-04-24T07:43:10.942Z,83.19
2018-04-24T07:43:51.457Z,81.35
2018-04-24T07:44:31.983Z,84.25
2018-04-24T07:45:12.511Z,86.96
2018-04-24T07:45:53.029Z,85.12
2018-04-24T07:46:33.523Z,82.03
2018-04-24T07:47:13.991Z,81.65
2018-04-24T07:47:54.482Z,81.68
2018-04-24T07:48:35.030Z,81.3
2018-04-24T07:49:15.486Z,81.3
2018-04-24T07:49:55.992Z,84.48
2018-04-24T07:50:36.491Z,86.61
2018-04-24T07:51:16.996Z,82.13
2018-04-24T07:51:57.514Z,88.15
2018-04-24T07:52:38.028Z,86.42
2018-04-24T07:53:18.566Z,83.52
2018-04-24T07:53:59.079Z,81.78
2018-04-24T07:54:39.646Z,84.2
2018-04-24T07:55:20.158Z,88.25
2018-04-24T07:56:00.687Z,87.38
2018-04-24T07:56:41.222Z,87.38
2018-04-24T07:57:21.716Z,85.74
2018-04-24T07:58:02.308Z,87.67
2018-04-24T07:58:42.835Z,89.31
2018-04-24T07:59:23.374Z,88.35
2018-04-24T08:00:03.934Z,91.53
2018-04-24T08:00:44.438Z,90.57
2018-04-24T08:01:24.962Z,91.05
2018-04-24T08:02:05.517Z,93.08
2018-04-24T08:02:46.039Z,92.79
2018-04-24T08:03:26.557Z,91.63
2018-04-24T08:04:07.079Z,86.71
2018-04-24T08:04:47.627Z,85.74
2018-04-24T08:05:28.158Z,84.25
2018-04-24T08:06:08.659Z,82.56
2018-04-24T08:06:49.199Z,81.49
2018-04-24T08:07:29.758Z,80.91
2018-04-24T08:08:10.344Z,79.72
2018-04-24T08:08:50.812Z,89.12
2018-04-24T08:09:31.326Z,87.48
2018-04-24T08:10:11.876Z,82.26
2018-04-24T08:10:52.386Z,86.8
2018-04-24T08:11:32.899Z,80.43
2018-04-24T08:12:13.430Z,85.21
2018-04-24T08:12:53.972Z,88.1
2018-04-24T08:13:34.485Z,83.08
2018-04-24T08:14:15.018Z,84.53
2018-04-24T08:14:55.562Z,77.05
2018-04-24T08:15:36.071Z,77.86
2018-04-24T08:16:16.589Z,83.18
2018-04-24T08:16:57.125Z,82.02
2018-04-24T08:17:37.657Z,75.64
2018-04-24T08:18:18.182Z,83.37
2018-04-24T08:18:58.711Z,82.6
2018-04-24T08:19:39.226Z,84.14
2018-04-24T08:20:19.750Z,85.59
2018-04-24T08:21:00.268Z,79.7
2018-04-24T08:21:40.784Z,76.47
2018-04-24T08:22:21.298Z,80.82
2018-04-24T08:23:01.807Z,76.37
2018-04-24T08:23:42.416Z,81.82
2018-04-24T08:24:22.906Z,87.81
2018-04-24T08:25:03.329Z,85.78
2018-04-24T08:25:43.932Z,83.99
2018-04-24T08:26:24.488Z,83.12
2018-04-24T08:27:05.038Z,86.31
2018-04-24T08:27:45.534Z,85.53
2018-04-24T08:28:26.037Z,86.31
2018-04-24T08:29:06.495Z,77.76
2018-04-24T08:29:46.980Z,75.35
2018-04-24T08:30:27.518Z,73.61
2018-04-24T08:31:08.046Z,74
2018-04-24T08:31:48.545Z,82.02
2018-04-24T08:32:29.057Z,80.47
2018-04-24T08:33:09.580Z,79.22
2018-04-24T08:33:50.027Z,83.75
2018-04-24T08:34:30.550Z,85.59
2018-04-24T08:35:11.090Z,85.49
2018-04-24T08:35:51.547Z,81.63
2018-04-24T08:36:32.098Z,80.22
2018-04-24T08:37:12.562Z,78.48
2018-04-24T08:37:53.044Z,80.41
2018-04-24T08:38:33.521Z,80.51
2018-04-24T08:39:14.005Z,79.02
2018-04-24T08:39:54.569Z,76.9
2018-04-24T08:40:35.055Z,76.61
2018-04-24T08:41:15.518Z,76.7
2018-04-24T08:41:56.142Z,77.28
2018-04-24T08:42:36.626Z,77.96
2018-04-24T08:43:17.101Z,78.31
2018-04-24T08:43:57.693Z,77.05
2018-04-24T08:44:38.183Z,76.51